Terminal Aerodrome Forecast
Issued by NWS North Platte, NE

Home | Current Version | Previous Version | Graphics & Text | Print | Product List | Glossary On
Versions: 1 2 3 4 5 6 7 8 9 10 11 12 13 14 15
960
FTUS43 KLBF 221120
TAFVTN
TAF
KVTN 221120Z 2212/2312 28009KT P6SM SCT250
     FM221500 31014G21KT P6SM BKN140
     FM221600 31013G20KT P6SM VCSH BKN080
     FM221800 32014G21KT P6SM VCTS BKN060CB
      TEMPO 2219/2223 5SM -TSRA BKN060CB
     FM230200 33009KT P6SM BKN100
     FM230300 32008KT P6SM BKN090
     FM230500 32007KT P6SM SCT080
     FM230800 31008KT P6SM BKN060=

USA.gov is the U.S. government's official web portal to all federal, state and local government web resources and services.